Terminal Aerodrome Forecast
Issued by NWS

Home | Current Version | Previous Version | Text Only | Print | Product List | Glossary On
Versions: 1 2 3 4 5 6 7 8 9 10 11 12 13 14 15
000
FTUS46 KPDT 050528
TAFDLS
TAF
KDLS 050528Z 0506/0606 30010KT P6SM VCSH BKN120
     FM050800 30010KT P6SM FEW040 SCT120
     FM051200 31010G16KT P6SM FEW020 SCT030 BKN040
     FM051700 31014G22KT P6SM FEW030 SCT050
     FM052100 31015G25KT P6SM SCT200
     FM060300 30010KT P6SM FEW120 BKN180=

USA.gov is the U.S. government's official web portal to all federal, state and local government web resources and services.